createdAt,value
2022-10-22T00:00:18.263Z,16.87
2022-10-22T00:01:18.234Z,16.87
2022-10-22T00:02:18.250Z,16.86
2022-10-22T00:03:18.213Z,16.89
2022-10-22T00:04:18.201Z,16.89
2022-10-22T00:05:18.193Z,16.91
2022-10-22T00:06:18.193Z,16.89
2022-10-22T00:07:18.172Z,16.90
2022-10-22T00:08:18.155Z,16.96
2022-10-22T00:09:18.183Z,16.94
2022-10-22T00:10:18.134Z,16.94
2022-10-22T00:11:18.123Z,16.97
2022-10-22T00:12:18.133Z,16.96
2022-10-22T00:13:18.104Z,16.94
2022-10-22T00:14:18.092Z,16.94
2022-10-22T00:15:18.085Z,16.97
2022-10-22T00:16:18.065Z,16.99
2022-10-22T00:17:18.053Z,17.02
2022-10-22T00:18:18.064Z,16.99
2022-10-22T00:19:18.034Z,16.99
2022-10-22T00:20:18.023Z,16.99
2022-10-22T00:21:18.013Z,16.89
2022-10-22T00:22:18.003Z,16.78
2022-10-22T00:23:17.994Z,16.81
2022-10-22T00:24:18.034Z,16.84
2022-10-22T00:25:17.972Z,16.83
2022-10-22T00:26:17.958Z,16.81
2022-10-22T00:27:17.944Z,16.81
2022-10-22T00:28:17.934Z,16.76
2022-10-22T00:29:17.924Z,16.74
2022-10-22T00:30:17.924Z,16.74
2022-10-22T00:31:17.896Z,16.75
2022-10-22T00:32:17.886Z,16.72
2022-10-22T00:33:17.875Z,16.76
2022-10-22T00:34:17.867Z,16.79
2022-10-22T00:35:17.856Z,16.84
2022-10-22T00:36:17.876Z,16.81
2022-10-22T00:37:17.835Z,16.71
2022-10-22T00:38:17.818Z,16.72
2022-10-22T00:39:17.813Z,16.72
2022-10-22T00:40:17.796Z,16.74
2022-10-22T00:41:17.808Z,16.69
2022-10-22T00:42:17.775Z,16.71
2022-10-22T00:43:17.765Z,16.66
2022-10-22T00:44:17.754Z,16.64
2022-10-22T00:45:17.744Z,16.60
2022-10-22T00:46:17.739Z,16.56
2022-10-22T00:47:17.736Z,16.56
2022-10-22T00:48:17.706Z,16.58
2022-10-22T00:49:17.696Z,16.64
2022-10-22T00:50:17.686Z,16.64
2022-10-22T00:51:17.676Z,16.66
2022-10-22T00:52:17.659Z,16.68
2022-10-22T00:53:17.674Z,16.69
2022-10-22T00:54:17.637Z,16.69
2022-10-22T00:55:17.626Z,16.68
2022-10-22T00:56:17.608Z,16.66
2022-10-22T00:57:17.606Z,16.71
2022-10-22T00:58:17.587Z,16.75
2022-10-22T00:59:17.605Z,16.78
2022-10-22T01:00:17.567Z,16.83
2022-10-22T01:01:17.602Z,16.78
2022-10-22T01:02:17.537Z,16.78
2022-10-22T01:03:17.537Z,16.72
2022-10-22T01:04:17.517Z,16.68
2022-10-22T01:05:17.539Z,16.66
2022-10-22T01:06:17.498Z,16.66
2022-10-22T01:07:17.487Z,16.69
2022-10-22T01:08:17.489Z,16.71
2022-10-22T01:09:17.467Z,16.69
2022-10-22T01:10:17.476Z,16.74
2022-10-22T01:11:17.447Z,16.74
2022-10-22T01:12:17.428Z,16.69
2022-10-22T01:13:17.427Z,16.74
2022-10-22T01:14:17.408Z,16.79
2022-10-22T01:15:17.402Z,16.81
2022-10-22T01:16:17.398Z,16.79
2022-10-22T01:17:17.402Z,16.76
2022-10-22T01:18:17.358Z,16.83
2022-10-22T01:19:17.358Z,16.84
2022-10-22T01:20:17.339Z,16.79
2022-10-22T01:21:17.349Z,16.72
2022-10-22T01:22:17.318Z,16.74
2022-10-22T01:23:17.313Z,16.83
2022-10-22T01:24:17.297Z,16.86
2022-10-22T01:25:17.289Z,16.91
2022-10-22T01:26:17.302Z,17.01
2022-10-22T01:27:17.308Z,16.96
2022-10-22T01:28:17.249Z,16.94
2022-10-22T01:29:17.248Z,16.91
2022-10-22T01:30:17.228Z,16.94
2022-10-22T01:31:17.252Z,16.99
2022-10-22T01:32:17.205Z,17.06
2022-10-22T01:33:17.209Z,17.11
2022-10-22T01:34:17.179Z,17.06
2022-10-22T01:35:17.170Z,16.97
2022-10-22T01:36:17.160Z,16.97
2022-10-22T01:37:17.150Z,17.06
2022-10-22T01:38:17.159Z,17.09
2022-10-22T01:39:17.127Z,17.15
2022-10-22T01:40:17.112Z,17.09
2022-10-22T01:41:17.109Z,17.06
2022-10-22T01:42:17.090Z,16.99
2022-10-22T01:43:17.080Z,17.01
2022-10-22T01:44:17.100Z,17.02
2022-10-22T01:45:17.062Z,17.09
2022-10-22T01:46:17.045Z,17.15
2022-10-22T01:47:17.030Z,17.19
2022-10-22T01:48:17.027Z,17.24
2022-10-22T01:49:17.010Z,17.27
2022-10-22T01:50:17.023Z,17.31
2022-10-22T01:51:16.989Z,17.33
2022-10-22T01:52:16.979Z,17.30
2022-10-22T01:53:16.962Z,17.33
2022-10-22T01:54:16.962Z,17.29
2022-10-22T01:55:16.941Z,17.22
2022-10-22T01:56:16.951Z,17.08
2022-10-22T01:57:16.920Z,17.04
2022-10-22T01:58:16.911Z,16.97
2022-10-22T01:59:16.891Z,16.94
2022-10-22T02:00:16.891Z,17.01
2022-10-22T02:01:16.893Z,17.01
2022-10-22T02:02:16.861Z,16.96
2022-10-22T02:03:19.858Z,16.99
2022-10-22T02:04:17.845Z,17.01
2022-10-22T02:05:16.831Z,17.05
2022-10-22T02:06:16.820Z,17.15
2022-10-22T02:07:16.822Z,17.20
2022-10-22T02:08:16.800Z,17.23
2022-10-22T02:09:16.845Z,17.24
2022-10-22T02:10:16.772Z,17.24
2022-10-22T02:11:16.753Z,17.19
2022-10-22T02:12:16.753Z,17.15
2022-10-22T02:13:16.751Z,17.08
2022-10-22T02:14:16.725Z,17.08
2022-10-22T02:15:16.712Z,17.04
2022-10-22T02:16:16.703Z,17.04
2022-10-22T02:17:16.692Z,17.01
2022-10-22T02:18:16.724Z,16.97
2022-10-22T02:19:16.672Z,17.02
2022-10-22T02:20:16.667Z,17.01
2022-10-22T02:21:16.653Z,17.01
2022-10-22T02:22:16.643Z,17.02
2022-10-22T02:23:16.622Z,17.06
2022-10-22T02:24:16.633Z,17.08
2022-10-22T02:25:16.602Z,17.08
2022-10-22T02:26:16.593Z,17.08
2022-10-22T02:27:16.588Z,16.97
2022-10-22T02:28:16.577Z,16.94
2022-10-22T02:29:16.555Z,16.91
2022-10-22T02:31:16.534Z,16.96
2022-10-22T02:32:16.538Z,16.93
2022-10-22T02:33:16.505Z,16.89
2022-10-22T02:34:16.497Z,16.86
2022-10-22T02:35:16.501Z,16.75
2022-10-22T02:36:16.495Z,16.66
2022-10-22T02:37:16.464Z,16.66
2022-10-22T02:38:16.454Z,16.74
2022-10-22T02:40:16.434Z,16.75
2022-10-22T02:41:16.414Z,16.79
2022-10-22T02:42:16.427Z,16.86
2022-10-22T02:43:16.396Z,16.90
2022-10-22T02:44:16.388Z,16.90
2022-10-22T02:45:16.374Z,16.89
2022-10-22T02:46:16.363Z,16.87
2022-10-22T02:47:16.364Z,16.86
2022-10-22T02:48:16.381Z,16.89
2022-10-22T02:49:16.325Z,16.78
2022-10-22T02:50:16.315Z,16.81
2022-10-22T02:51:16.305Z,16.81
2022-10-22T02:52:16.295Z,16.84
2022-10-22T02:53:16.307Z,16.79
2022-10-22T02:54:16.274Z,16.75
2022-10-22T02:55:16.255Z,16.79
2022-10-22T02:56:16.246Z,16.74
2022-10-22T02:57:16.272Z,16.78
2022-10-22T02:58:16.225Z,16.69
2022-10-22T02:59:16.227Z,16.51
2022-10-22T03:00:16.205Z,16.60
2022-10-22T03:01:16.366Z,16.60
2022-10-22T03:02:16.176Z,16.66
2022-10-22T03:03:16.166Z,16.68
2022-10-22T03:04:16.156Z,16.71
2022-10-22T03:05:16.165Z,16.64
2022-10-22T03:06:16.223Z,16.65
2022-10-22T03:07:16.124Z,16.54
2022-10-22T03:08:16.114Z,16.56
2022-10-22T03:09:16.907Z,16.60
2022-10-22T03:10:16.094Z,16.61
2022-10-22T03:11:16.106Z,16.66
2022-10-22T03:12:16.067Z,16.66
2022-10-22T03:13:16.053Z,16.64
2022-10-22T03:14:16.047Z,16.60
2022-10-22T03:15:16.042Z,16.58
2022-10-22T03:16:16.027Z,16.60
2022-10-22T03:17:16.027Z,16.57
2022-10-22T03:18:15.998Z,16.60
2022-10-22T03:19:15.987Z,16.64
2022-10-22T03:20:15.977Z,16.72
2022-10-22T03:21:15.967Z,16.79
2022-10-22T03:22:15.957Z,16.81
2022-10-22T03:23:15.957Z,16.81
2022-10-22T03:24:15.946Z,16.78
2022-10-22T03:25:15.918Z,16.74
2022-10-22T03:26:15.918Z,16.75
2022-10-22T03:27:15.897Z,16.71
2022-10-22T03:28:15.928Z,16.68
2022-10-22T03:29:15.888Z,16.75
2022-10-22T03:30:15.866Z,16.79
2022-10-22T03:31:15.848Z,16.83
2022-10-22T03:32:15.846Z,16.89
2022-10-22T03:33:15.827Z,16.89
2022-10-22T03:34:15.866Z,16.87
2022-10-22T03:35:15.806Z,16.89
2022-10-22T03:36:15.799Z,16.90
2022-10-22T03:37:15.786Z,16.86
2022-10-22T03:38:15.778Z,16.84
2022-10-22T03:39:15.767Z,16.74
2022-10-22T03:40:15.775Z,16.72
2022-10-22T03:41:15.740Z,16.71
2022-10-22T03:42:15.728Z,16.58
2022-10-22T03:43:15.713Z,16.53
2022-10-22T03:44:15.707Z,16.60
2022-10-22T03:45:15.698Z,16.57
2022-10-22T03:46:15.717Z,16.57
2022-10-22T03:47:15.669Z,16.56
2022-10-22T03:48:15.659Z,16.47
2022-10-22T03:49:15.658Z,16.43
2022-10-22T03:50:15.639Z,16.35
2022-10-22T03:51:15.629Z,16.32
2022-10-22T03:52:15.639Z,16.35
2022-10-22T03:53:15.599Z,16.41
2022-10-22T03:54:15.590Z,16.43
2022-10-22T03:55:15.580Z,16.50
2022-10-22T03:56:15.579Z,16.51
2022-10-22T03:57:15.557Z,16.60
2022-10-22T03:58:15.572Z,16.66
2022-10-22T03:59:15.547Z,16.71
2022-10-22T04:00:15.529Z,16.72
2022-10-22T04:01:15.594Z,16.69
2022-10-22T04:02:15.510Z,16.71
2022-10-22T04:03:15.492Z,16.72
2022-10-22T04:04:15.503Z,16.71
2022-10-22T04:05:15.470Z,16.71
2022-10-22T04:06:22.549Z,16.74
2022-10-22T04:07:18.073Z,16.74
2022-10-22T04:08:15.443Z,16.74
2022-10-22T04:09:15.488Z,16.76
2022-10-22T04:10:15.442Z,16.78
2022-10-22T04:11:15.402Z,16.78
2022-10-22T04:12:15.393Z,16.79
2022-10-22T04:13:15.382Z,16.75
2022-10-22T04:14:15.373Z,16.76
2022-10-22T04:15:15.353Z,16.79
2022-10-22T04:16:15.373Z,16.81
2022-10-22T04:17:15.332Z,16.83
2022-10-22T04:18:15.323Z,16.84
2022-10-22T04:19:15.314Z,16.83
2022-10-22T04:20:15.311Z,16.84
2022-10-22T04:21:15.291Z,16.83
2022-10-22T04:22:15.294Z,16.84
2022-10-22T04:23:15.273Z,16.83
2022-10-22T04:24:15.262Z,16.86
2022-10-22T04:25:15.243Z,16.90
2022-10-22T04:26:15.234Z,16.89
2022-10-22T04:27:15.246Z,16.87
2022-10-22T04:28:15.214Z,16.86
2022-10-22T04:29:16.346Z,16.89
2022-10-22T04:30:15.193Z,16.87
2022-10-22T04:31:15.173Z,16.79
2022-10-22T04:32:15.173Z,16.75
2022-10-22T04:33:15.176Z,16.76
2022-10-22T04:34:15.144Z,16.75
2022-10-22T04:35:15.322Z,16.69
2022-10-22T04:36:15.124Z,16.71
2022-10-22T04:37:15.104Z,16.68
2022-10-22T04:38:15.104Z,16.64
2022-10-22T04:39:15.104Z,16.60
2022-10-22T04:40:15.083Z,16.71
2022-10-22T04:41:15.067Z,16.72
2022-10-22T04:42:15.055Z,16.74
2022-10-22T04:43:15.050Z,16.71
2022-10-22T04:44:17.253Z,16.65
2022-10-22T04:45:15.015Z,16.64
2022-10-22T04:46:15.012Z,16.57
2022-10-22T04:47:14.994Z,16.57
2022-10-22T04:48:14.993Z,16.61
2022-10-22T04:49:14.973Z,16.57
2022-10-22T04:50:14.996Z,16.51
2022-10-22T04:51:14.945Z,16.49
2022-10-22T04:52:14.944Z,16.51
2022-10-22T04:53:14.928Z,16.42
2022-10-22T04:54:15.164Z,16.49
2022-10-22T04:55:14.906Z,16.49
2022-10-22T04:56:14.923Z,16.42
2022-10-22T04:57:14.885Z,16.49
2022-10-22T04:58:14.884Z,16.50
2022-10-22T04:59:14.856Z,16.50
2022-10-22T05:00:14.855Z,16.60
2022-10-22T05:01:14.907Z,16.61
2022-10-22T05:02:14.859Z,16.68
2022-10-22T05:03:14.826Z,16.61
2022-10-22T05:04:14.814Z,16.51
2022-10-22T05:05:14.795Z,16.43
2022-10-22T05:06:14.859Z,16.50
2022-10-22T05:07:14.787Z,16.56
2022-10-22T05:08:14.787Z,16.53
2022-10-22T05:09:14.909Z,16.57
2022-10-22T05:10:14.744Z,16.57
2022-10-22T05:11:14.726Z,16.50
2022-10-22T05:12:14.724Z,16.51
2022-10-22T05:13:14.709Z,16.58
2022-10-22T05:14:14.716Z,16.51
2022-10-22T05:15:14.686Z,16.42
2022-10-22T05:16:14.680Z,16.43
2022-10-22T05:17:14.662Z,16.39
2022-10-22T05:18:16.804Z,16.39
2022-10-22T05:19:15.657Z,16.42
2022-10-22T05:20:14.628Z,16.35
2022-10-22T05:21:14.636Z,16.38
2022-10-22T05:22:14.608Z,16.41
2022-10-22T05:23:14.597Z,16.31
2022-10-22T05:24:14.588Z,16.21
2022-10-22T05:25:14.596Z,16.10
2022-10-22T05:26:14.574Z,16.09
2022-10-22T05:27:14.616Z,16.10
2022-10-22T05:28:14.555Z,16.16
2022-10-22T05:29:14.552Z,16.16
2022-10-22T05:30:14.542Z,16.20
2022-10-22T05:31:14.534Z,16.17
2022-10-22T05:32:14.497Z,16.21
2022-10-22T05:33:14.478Z,16.24
2022-10-22T05:34:14.481Z,16.21
2022-10-22T05:35:14.457Z,16.13
2022-10-22T05:36:14.478Z,16.09
2022-10-22T05:37:14.436Z,16.17
2022-10-22T05:38:14.427Z,16.23
2022-10-22T05:39:14.417Z,16.23
2022-10-22T05:40:26.510Z,16.09
2022-10-22T05:41:15.421Z,16.12
2022-10-22T05:42:14.379Z,16.16
2022-10-22T05:43:14.374Z,16.16
2022-10-22T05:44:14.358Z,16.01
2022-10-22T05:45:14.348Z,15.97
2022-10-22T05:46:16.614Z,16.08
2022-10-22T05:47:14.346Z,16.05
2022-10-22T05:48:14.319Z,16.08
2022-10-22T05:49:14.298Z,16.10
2022-10-22T05:50:14.298Z,16.05
2022-10-22T05:51:14.277Z,16.02
2022-10-22T05:52:14.298Z,15.95
2022-10-22T05:53:14.261Z,16.02
2022-10-22T05:54:14.249Z,16.01
2022-10-22T05:55:14.235Z,16.05
2022-10-22T05:56:14.227Z,16.04
2022-10-22T05:57:14.210Z,16.09
2022-10-22T05:58:14.227Z,16.02
2022-10-22T05:59:14.198Z,16.08
2022-10-22T06:00:16.426Z,16.09
2022-10-22T06:01:14.170Z,16.00
2022-10-22T06:02:14.198Z,15.92
2022-10-22T06:03:14.150Z,16.01
2022-10-22T06:04:14.163Z,16.05
2022-10-22T06:05:14.131Z,16.02
2022-10-22T06:06:14.109Z,16.05
2022-10-22T06:07:14.108Z,16.05
2022-10-22T06:08:18.206Z,16.01
2022-10-22T06:09:15.138Z,16.00
2022-10-22T06:10:14.070Z,16.01
2022-10-22T06:11:14.085Z,15.97
2022-10-22T06:12:14.048Z,15.92
2022-10-22T06:13:14.040Z,15.86
2022-10-22T06:14:14.023Z,15.90
2022-10-22T06:15:14.033Z,15.90
2022-10-22T06:16:14.001Z,15.92
2022-10-22T06:17:13.990Z,15.90
2022-10-22T06:18:13.972Z,15.88
2022-10-22T06:19:13.970Z,15.83
2022-10-22T06:20:13.979Z,15.84
2022-10-22T06:21:13.941Z,15.91
2022-10-22T06:22:13.929Z,15.90
2022-10-22T06:23:13.920Z,15.88
2022-10-22T06:24:13.911Z,15.90
2022-10-22T06:25:13.900Z,15.91
2022-10-22T06:26:13.913Z,15.88
2022-10-22T06:27:13.882Z,15.90
2022-10-22T06:28:13.908Z,15.92
2022-10-22T06:29:13.859Z,15.94
2022-10-22T06:30:13.844Z,15.94
2022-10-22T06:31:13.834Z,16.00
2022-10-22T06:32:13.842Z,16.01
2022-10-22T06:33:13.811Z,16.01
2022-10-22T06:34:13.800Z,16.04
2022-10-22T06:35:13.790Z,16.13
2022-10-22T06:36:13.773Z,16.08
2022-10-22T06:37:13.785Z,16.01
2022-10-22T06:38:13.752Z,16.09
2022-10-22T06:39:13.742Z,16.10
2022-10-22T06:40:13.733Z,16.09
2022-10-22T06:41:13.721Z,16.13
2022-10-22T06:42:13.730Z,16.13
2022-10-22T06:43:13.702Z,16.26
2022-10-22T06:44:13.682Z,16.33
2022-10-22T06:45:13.682Z,16.29
2022-10-22T06:46:16.080Z,16.23
2022-10-22T06:47:14.681Z,16.21
2022-10-22T06:48:13.641Z,16.13
2022-10-22T06:49:13.701Z,16.09
2022-10-22T06:50:13.613Z,16.10
2022-10-22T06:51:13.613Z,16.10
2022-10-22T06:52:13.602Z,16.17
2022-10-22T06:53:13.650Z,16.31
2022-10-22T06:54:13.575Z,16.46
2022-10-22T06:55:13.562Z,16.66
2022-10-22T06:56:13.555Z,16.81
2022-10-22T06:57:13.542Z,17.29
2022-10-22T06:58:13.533Z,17.44
2022-10-22T06:59:13.592Z,17.71
2022-10-22T07:00:13.508Z,18.31
2022-10-22T07:01:13.541Z,18.70
2022-10-22T07:02:13.483Z,18.81
2022-10-22T07:03:13.473Z,18.92
2022-10-22T07:04:13.462Z,19.14
2022-10-22T07:05:13.464Z,19.22
2022-10-22T07:06:13.441Z,19.34
2022-10-22T07:07:13.435Z,19.58
2022-10-22T07:08:13.413Z,19.77
2022-10-22T07:09:13.542Z,19.86
2022-10-22T07:10:13.425Z,20.07
2022-10-22T07:11:13.382Z,20.09
2022-10-22T07:12:13.364Z,20.14
2022-10-22T07:13:13.364Z,20.32
2022-10-22T07:14:13.353Z,20.13
2022-10-22T07:15:13.343Z,20.40
2022-10-22T07:16:13.345Z,20.22
2022-10-22T07:17:13.324Z,20.44
2022-10-22T07:18:13.305Z,20.67
2022-10-22T07:19:13.294Z,20.96
2022-10-22T07:20:13.276Z,20.97
2022-10-22T07:21:13.275Z,21.09
2022-10-22T07:22:13.278Z,21.18
2022-10-22T07:23:13.250Z,20.60
2022-10-22T07:24:13.235Z,20.34
2022-10-22T07:25:13.225Z,20.13
2022-10-22T07:26:13.214Z,19.76
2022-10-22T07:27:13.203Z,19.79
2022-10-22T07:28:13.212Z,19.89
2022-10-22T07:29:13.176Z,20.09
2022-10-22T07:30:13.167Z,20.07
2022-10-22T07:31:13.156Z,20.13
2022-10-22T07:32:13.145Z,20.10
2022-10-22T07:33:13.137Z,20.04
2022-10-22T07:34:13.205Z,20.09
2022-10-22T07:35:13.118Z,20.07
2022-10-22T07:36:13.097Z,19.73
2022-10-22T07:37:13.096Z,19.51
2022-10-22T07:38:13.077Z,19.48
2022-10-22T07:39:13.070Z,19.30
2022-10-22T07:40:13.076Z,19.30
2022-10-22T07:41:13.048Z,19.24
2022-10-22T07:42:13.032Z,19.02
2022-10-22T07:43:13.027Z,18.93
2022-10-22T07:44:13.016Z,19.02
2022-10-22T07:45:12.999Z,19.33
2022-10-22T07:46:13.010Z,19.54
2022-10-22T07:47:12.979Z,19.51
2022-10-22T07:48:12.967Z,19.40
2022-10-22T07:49:12.959Z,19.56
2022-10-22T07:50:12.940Z,19.88
2022-10-22T07:51:12.938Z,20.32
2022-10-22T07:52:12.940Z,20.63
2022-10-22T07:53:12.912Z,20.87
2022-10-22T07:54:12.899Z,21.02
2022-10-22T07:55:12.889Z,20.63
2022-10-22T07:56:12.879Z,20.63
2022-10-22T07:57:12.869Z,21.00
2022-10-22T07:58:12.870Z,21.35
2022-10-22T07:59:12.850Z,21.72
2022-10-22T08:00:12.834Z,22.14
2022-10-22T08:01:12.837Z,22.22
2022-10-22T08:02:12.810Z,22.57
2022-10-22T08:03:12.831Z,22.76
2022-10-22T08:04:12.791Z,23.05
2022-10-22T08:05:12.781Z,22.98
2022-10-22T08:06:12.762Z,22.94
2022-10-22T08:07:12.751Z,23.15
2022-10-22T08:08:12.740Z,23.08
2022-10-22T08:09:12.772Z,23.00
2022-10-22T08:10:12.726Z,22.62
2022-10-22T08:11:12.712Z,22.55
2022-10-22T08:12:12.693Z,22.29
2022-10-22T08:13:12.691Z,22.13
2022-10-22T08:14:12.673Z,22.17
2022-10-22T08:15:12.684Z,22.51
2022-10-22T08:16:12.665Z,22.13
2022-10-22T08:17:12.644Z,21.99
2022-10-22T08:18:12.632Z,22.14
2022-10-22T08:19:12.624Z,22.36
2022-10-22T08:20:12.625Z,22.45
2022-10-22T08:21:12.603Z,22.51
2022-10-22T08:22:12.584Z,22.66
2022-10-22T08:23:12.576Z,22.83
2022-10-22T08:24:12.568Z,22.99
2022-10-22T08:25:12.553Z,23.00
2022-10-22T08:26:12.567Z,23.12
2022-10-22T08:27:12.535Z,22.93
2022-10-22T08:28:12.515Z,22.60
2022-10-22T08:29:12.506Z,22.84
2022-10-22T08:30:12.495Z,23.09
2022-10-22T08:31:12.488Z,23.27
2022-10-22T08:32:12.496Z,23.55
2022-10-22T08:33:12.466Z,23.51
2022-10-22T08:34:12.455Z,23.34
2022-10-22T08:35:14.173Z,23.48
2022-10-22T08:36:12.435Z,23.36
2022-10-22T08:37:12.426Z,22.94
2022-10-22T08:38:12.431Z,22.60
2022-10-22T08:39:12.397Z,22.81
2022-10-22T08:40:12.389Z,23.09
2022-10-22T08:41:12.382Z,22.96
2022-10-22T08:42:12.367Z,23.05
2022-10-22T08:43:12.358Z,22.88
2022-10-22T08:44:12.359Z,22.81
2022-10-22T08:45:12.338Z,22.90
2022-10-22T08:46:12.321Z,22.70
2022-10-22T08:47:12.317Z,22.81
2022-10-22T08:48:12.299Z,22.70
2022-10-22T08:49:12.321Z,22.85
2022-10-22T08:50:12.280Z,23.05
2022-10-22T08:51:12.270Z,23.08
2022-10-22T08:52:12.258Z,23.39
2022-10-22T08:53:12.252Z,23.66
2022-10-22T08:54:12.231Z,23.87
2022-10-22T08:55:12.278Z,24.26
2022-10-22T08:56:12.211Z,24.24
2022-10-22T08:57:12.293Z,24.32
2022-10-22T08:58:12.192Z,24.28
2022-10-22T08:59:12.181Z,24.03
2022-10-22T09:00:12.180Z,24.05
2022-10-22T09:01:12.181Z,24.03
2022-10-22T09:02:12.173Z,24.06
2022-10-22T09:03:12.152Z,24.02
2022-10-22T09:04:12.124Z,24.30
2022-10-22T09:05:12.380Z,24.61
2022-10-22T09:06:12.104Z,24.95
2022-10-22T09:07:12.135Z,24.53
2022-10-22T09:08:12.084Z,23.84
2022-10-22T09:09:12.158Z,23.47
2022-10-22T09:10:12.063Z,22.99
2022-10-22T09:11:12.053Z,23.02
2022-10-22T09:12:14.407Z,22.91
2022-10-22T09:13:12.045Z,22.85
2022-10-22T09:14:12.033Z,22.30
2022-10-22T09:15:12.006Z,22.28
2022-10-22T09:16:11.995Z,22.29
2022-10-22T09:17:11.984Z,22.07
2022-10-22T09:18:11.995Z,22.08
2022-10-22T09:19:11.964Z,21.72
2022-10-22T09:20:11.946Z,21.85
2022-10-22T09:21:11.946Z,22.60
2022-10-22T09:22:11.927Z,23.40
2022-10-22T09:23:11.917Z,23.77
2022-10-22T09:24:11.917Z,23.95
2022-10-22T09:25:11.896Z,24.20
2022-10-22T09:26:11.888Z,24.47
2022-10-22T09:27:11.878Z,23.99
2022-10-22T09:28:11.865Z,23.65
2022-10-22T09:29:11.878Z,23.62
2022-10-22T09:30:11.840Z,23.12
2022-10-22T09:31:11.841Z,22.81
2022-10-22T09:32:11.818Z,22.75
2022-10-22T09:33:11.818Z,22.53
2022-10-22T09:34:11.803Z,22.45
2022-10-22T09:35:11.839Z,22.25
2022-10-22T09:36:11.779Z,22.26
2022-10-22T09:37:11.769Z,22.26
2022-10-22T09:38:11.750Z,22.18
2022-10-22T09:39:11.767Z,21.83
2022-10-22T09:40:11.750Z,21.69
2022-10-22T09:41:11.719Z,21.66
2022-10-22T09:42:11.709Z,21.60
2022-10-22T09:43:11.700Z,21.46
2022-10-22T09:44:11.681Z,21.51
2022-10-22T09:45:11.678Z,21.60
2022-10-22T09:46:11.683Z,21.22
2022-10-22T09:47:11.651Z,21.07
2022-10-22T09:48:11.641Z,21.03
2022-10-22T09:49:11.631Z,21.03
2022-10-22T09:50:11.626Z,21.05
2022-10-22T09:51:11.632Z,20.92
2022-10-22T09:52:11.592Z,20.81
2022-10-22T09:53:11.593Z,20.85
2022-10-22T09:54:11.573Z,20.93
2022-10-22T09:55:11.562Z,20.85
2022-10-22T09:56:11.551Z,20.84
2022-10-22T09:57:11.592Z,20.85
2022-10-22T09:58:11.522Z,20.75
2022-10-22T09:59:11.522Z,20.72
2022-10-22T10:00:11.513Z,20.74
2022-10-22T10:01:11.493Z,20.56
2022-10-22T10:02:19.808Z,20.43
2022-10-22T10:03:12.554Z,20.36
2022-10-22T10:04:11.488Z,20.34
2022-10-22T10:05:11.452Z,20.52
2022-10-22T10:06:11.442Z,20.63
2022-10-22T10:07:18.475Z,20.77
2022-10-22T10:08:11.414Z,20.81
2022-10-22T10:09:11.568Z,20.78
2022-10-22T10:10:11.394Z,20.77
2022-10-22T10:11:11.384Z,20.85
2022-10-22T10:12:11.368Z,20.92
2022-10-22T10:13:11.361Z,21.02
2022-10-22T10:14:11.346Z,21.14
2022-10-22T10:15:11.346Z,21.25
2022-10-22T10:16:11.325Z,21.29
2022-10-22T10:17:11.307Z,21.20
2022-10-22T10:18:11.296Z,21.12
2022-10-22T10:19:11.407Z,21.24
2022-10-22T10:20:11.276Z,21.14
2022-10-22T10:21:11.369Z,21.20
2022-10-22T10:22:11.265Z,21.15
2022-10-22T10:23:11.247Z,21.02
2022-10-22T10:24:11.296Z,20.99
2022-10-22T10:25:11.218Z,21.06
2022-10-22T10:26:11.207Z,21.06
2022-10-22T10:27:11.217Z,21.12
2022-10-22T10:28:11.195Z,21.14
2022-10-22T10:29:11.177Z,21.18
2022-10-22T10:30:11.172Z,21.06
2022-10-22T10:31:11.158Z,21.06
2022-10-22T10:32:11.170Z,21.07
2022-10-22T10:33:11.128Z,21.09
2022-10-22T10:34:11.122Z,21.05
2022-10-22T10:35:11.149Z,21.00
2022-10-22T10:36:11.100Z,21.06
2022-10-22T10:37:11.098Z,21.03
2022-10-22T10:38:11.102Z,21.22
2022-10-22T10:39:11.104Z,21.22
2022-10-22T10:40:11.058Z,21.12
2022-10-22T10:41:11.040Z,20.93
2022-10-22T10:42:11.030Z,21.09
2022-10-22T10:43:11.019Z,21.15
2022-10-22T10:44:11.028Z,21.12
2022-10-22T10:45:10.991Z,21.20
2022-10-22T10:46:11.054Z,21.42
2022-10-22T10:47:10.970Z,21.72
2022-10-22T10:48:10.960Z,21.82
2022-10-22T10:49:10.950Z,21.73
2022-10-22T10:50:10.980Z,21.93
2022-10-22T10:51:10.922Z,21.88
2022-10-22T10:52:10.921Z,21.77
2022-10-22T10:53:10.910Z,21.72
2022-10-22T10:54:10.901Z,21.72
2022-10-22T10:55:10.883Z,21.76
2022-10-22T10:56:10.901Z,21.73
2022-10-22T10:57:10.862Z,21.69
2022-10-22T10:58:10.852Z,21.75
2022-10-22T10:59:10.842Z,21.89
2022-10-22T11:00:10.832Z,21.79
2022-10-22T11:01:10.813Z,21.46
2022-10-22T11:02:10.831Z,21.33
2022-10-22T11:03:10.794Z,21.24
2022-10-22T11:04:10.783Z,21.14
2022-10-22T11:05:10.781Z,21.14
2022-10-22T11:06:10.763Z,21.25
2022-10-22T11:07:11.286Z,21.25
2022-10-22T11:08:11.756Z,21.20
2022-10-22T11:09:10.738Z,21.14
2022-10-22T11:10:10.783Z,21.15
2022-10-22T11:11:10.731Z,21.24
2022-10-22T11:12:10.697Z,21.17
2022-10-22T11:13:10.704Z,21.30
2022-10-22T11:14:10.676Z,21.20
2022-10-22T11:15:10.663Z,21.12
2022-10-22T11:16:10.658Z,21.17
2022-10-22T11:17:10.635Z,21.43
2022-10-22T11:18:10.635Z,21.32
2022-10-22T11:19:11.304Z,21.25
2022-10-22T11:20:10.676Z,21.12
2022-10-22T11:21:10.597Z,20.99
2022-10-22T11:22:10.597Z,20.97
2022-10-22T11:23:19.636Z,21.05
2022-10-22T11:24:11.585Z,20.99
2022-10-22T11:25:10.554Z,21.02
2022-10-22T11:26:10.546Z,20.99
2022-10-22T11:27:10.536Z,20.99
2022-10-22T11:28:11.241Z,20.88
2022-10-22T11:29:10.507Z,20.87
2022-10-22T11:30:10.543Z,20.96
2022-10-22T11:31:10.507Z,21.07
2022-10-22T11:32:10.475Z,21.17
2022-10-22T11:33:10.458Z,21.21
2022-10-22T11:34:32.147Z,21.24
2022-10-22T11:35:11.457Z,21.22
2022-10-22T11:36:10.427Z,21.17
2022-10-22T11:37:10.417Z,20.97
2022-10-22T11:38:10.408Z,20.85
2022-10-22T11:39:10.390Z,21.00
2022-10-22T11:40:10.388Z,21.12
2022-10-22T11:41:10.389Z,20.96
2022-10-22T11:42:10.368Z,20.81
2022-10-22T11:43:10.349Z,20.81
2022-10-22T11:44:10.341Z,20.96
2022-10-22T11:45:10.334Z,20.87
2022-10-22T11:46:10.339Z,20.95
2022-10-22T11:47:10.309Z,20.93
2022-10-22T11:48:10.310Z,20.88
2022-10-22T11:49:10.300Z,20.90
2022-10-22T11:50:10.278Z,20.99
2022-10-22T11:51:10.260Z,21.06
2022-10-22T11:52:10.278Z,21.17
2022-10-22T11:54:10.231Z,21.43
2022-10-22T11:55:10.219Z,21.24
2022-10-22T11:56:10.211Z,21.30
2022-10-22T11:57:10.202Z,21.27
2022-10-22T11:58:10.203Z,21.32
2022-10-22T11:59:10.181Z,21.36
2022-10-22T12:00:10.172Z,21.52
2022-10-22T12:01:10.163Z,21.48
2022-10-22T12:02:10.142Z,21.50
2022-10-22T12:03:10.181Z,21.60
2022-10-22T12:04:10.173Z,21.60
2022-10-22T12:05:10.111Z,21.39
2022-10-22T12:06:10.101Z,21.32
2022-10-22T12:07:10.095Z,21.21
2022-10-22T12:08:14.785Z,21.18
2022-10-22T12:09:11.146Z,21.17
2022-10-22T12:10:10.506Z,21.25
2022-10-22T12:11:10.044Z,21.39
2022-10-22T12:12:10.042Z,21.54
2022-10-22T12:13:10.013Z,21.64
2022-10-22T12:14:10.013Z,21.79
2022-10-22T12:15:10.014Z,21.88
2022-10-22T12:16:12.807Z,22.10
2022-10-22T12:17:09.975Z,22.18
2022-10-22T12:18:10.000Z,22.22
2022-10-22T12:19:09.954Z,22.18
2022-10-22T12:20:09.966Z,22.23
2022-10-22T12:21:09.934Z,22.25
2022-10-22T12:22:09.925Z,22.29
2022-10-22T12:23:09.905Z,22.43
2022-10-22T12:24:09.904Z,22.55
2022-10-22T12:25:09.885Z,22.66
2022-10-22T12:26:09.895Z,22.63
2022-10-22T12:27:10.617Z,22.69
2022-10-22T12:28:09.868Z,22.85
2022-10-22T12:29:09.836Z,23.20
2022-10-22T12:30:09.849Z,23.41
2022-10-22T12:31:09.836Z,23.28
2022-10-22T12:32:09.824Z,23.25
2022-10-22T12:33:09.804Z,23.17
2022-10-22T12:34:09.786Z,23.17
2022-10-22T12:35:09.777Z,23.17
2022-10-22T12:36:09.767Z,23.32
2022-10-22T12:37:09.768Z,23.46
2022-10-22T12:38:09.757Z,23.43
2022-10-22T12:39:09.727Z,23.44
2022-10-22T12:40:09.719Z,23.24
2022-10-22T12:41:09.708Z,23.08
2022-10-22T12:42:09.699Z,23.02
2022-10-22T12:44:09.683Z,23.00
2022-10-22T12:45:09.661Z,22.75
2022-10-22T12:46:09.648Z,22.96
2022-10-22T12:47:09.640Z,23.03
2022-10-22T12:48:09.630Z,22.98
2022-10-22T12:49:09.658Z,23.05
2022-10-22T12:50:09.602Z,23.03
2022-10-22T12:51:09.599Z,22.96
2022-10-22T12:52:12.078Z,22.99
2022-10-22T12:53:09.570Z,22.91
2022-10-22T12:54:09.562Z,22.76
2022-10-22T12:55:09.568Z,22.81
2022-10-22T12:56:09.541Z,22.93